createdAt,value
2022-08-23T00:00:49.795Z,21.54
2022-08-23T00:03:17.242Z,21.51
2022-08-23T00:05:44.145Z,21.47
2022-08-23T00:08:10.765Z,21.45
2022-08-23T00:10:37.303Z,21.41
2022-08-23T00:13:04.058Z,21.39
2022-08-23T00:15:30.602Z,21.37
2022-08-23T00:17:57.319Z,21.33
2022-08-23T00:20:23.950Z,21.30
2022-08-23T00:22:50.527Z,21.26
2022-08-23T00:25:17.812Z,21.25
2022-08-23T00:27:44.923Z,21.23
2022-08-23T00:30:13.482Z,21.17
2022-08-23T00:32:40.767Z,21.14
2022-08-23T00:35:10.011Z,21.12
2022-08-23T00:37:38.060Z,21.08
2022-08-23T00:40:07.561Z,21.04
2022-08-23T00:43:34.995Z,20.97
2022-08-23T00:46:26.291Z,20.90
2022-08-23T00:48:53.477Z,20.85
2022-08-23T00:51:28.130Z,20.82
2022-08-23T00:53:57.602Z,20.79
2022-08-23T00:56:27.822Z,20.76
2022-08-23T00:58:57.891Z,20.70
2022-08-23T01:01:25.318Z,20.64
2022-08-23T01:04:03.953Z,20.59
2022-08-23T01:06:44.104Z,20.53
2022-08-23T01:09:17.947Z,20.47
2022-08-23T01:12:04.647Z,20.41
2022-08-23T01:14:38.752Z,20.39
2022-08-23T01:17:26.594Z,20.32
2022-08-23T01:20:04.881Z,20.29
2022-08-23T01:22:57.370Z,20.21
2022-08-23T01:25:26.553Z,20.18
2022-08-23T01:27:53.605Z,20.13
2022-08-23T01:30:23.621Z,20.09
2022-08-23T01:32:54.818Z,20.04
2022-08-23T01:35:29.473Z,20.00
2022-08-23T01:37:56.019Z,19.96
2022-08-23T01:40:22.877Z,19.94
2022-08-23T01:42:49.554Z,19.89
2022-08-23T01:45:16.399Z,19.88
2022-08-23T01:47:43.026Z,19.84
2022-08-23T01:50:11.331Z,19.83
2022-08-23T01:52:47.288Z,19.80
2022-08-23T01:55:14.658Z,19.79
2022-08-23T01:57:45.463Z,19.76
2022-08-23T02:00:15.308Z,19.74
2022-08-23T02:02:41.883Z,19.71
2022-08-23T02:05:09.536Z,19.67
2022-08-23T02:07:36.182Z,19.62
2022-08-23T02:10:02.925Z,19.59
2022-08-23T02:12:29.930Z,19.57
2022-08-23T02:14:56.820Z,19.56
2022-08-23T02:17:23.364Z,19.54
2022-08-23T02:19:50.014Z,19.52
2022-08-23T02:22:17.964Z,19.50
2022-08-23T02:24:46.404Z,19.46
2022-08-23T02:27:15.400Z,19.39
2022-08-23T02:29:45.818Z,19.34
2022-08-23T02:32:14.708Z,19.29
2022-08-23T02:34:43.381Z,19.27
2022-08-23T02:37:12.583Z,19.23
2022-08-23T02:39:40.907Z,19.23
2022-08-23T02:42:11.672Z,19.22
2022-08-23T02:44:39.757Z,19.20
2022-08-23T02:47:08.916Z,19.21
2022-08-23T02:49:35.995Z,19.19
2022-08-23T02:52:03.533Z,19.18
2022-08-23T02:54:30.403Z,19.17
2022-08-23T02:56:56.951Z,19.13
2022-08-23T02:59:23.567Z,19.07
2022-08-23T03:01:51.441Z,19.05
2022-08-23T03:04:18.029Z,19.03
2022-08-23T03:06:45.432Z,19.06
2022-08-23T03:09:11.984Z,19.05
2022-08-23T03:11:44.883Z,19.07
2022-08-23T03:14:11.572Z,19.06
2022-08-23T03:16:38.222Z,19.03
2022-08-23T03:19:04.778Z,19.02
2022-08-23T03:21:32.495Z,19.01
2022-08-23T03:23:59.667Z,19.01
2022-08-23T03:26:26.223Z,18.99
2022-08-23T03:28:53.393Z,18.98
2022-08-23T03:31:23.393Z,18.97
2022-08-23T03:33:50.107Z,18.95
2022-08-23T03:36:16.641Z,18.95
2022-08-23T03:38:43.296Z,18.95
2022-08-23T03:41:10.335Z,18.93
2022-08-23T03:43:37.686Z,18.92
2022-08-23T03:46:06.002Z,18.91
2022-08-23T03:48:32.959Z,18.91
2022-08-23T03:51:00.184Z,18.90
2022-08-23T03:53:26.827Z,18.90
2022-08-23T03:55:55.356Z,18.88
2022-08-23T03:58:23.513Z,18.87
2022-08-23T04:00:50.059Z,18.85
2022-08-23T04:03:16.678Z,18.83
2022-08-23T04:05:43.640Z,18.81
2022-08-23T04:08:11.210Z,18.80
2022-08-23T04:10:39.391Z,18.78
2022-08-23T04:13:08.393Z,18.77
2022-08-23T04:15:35.567Z,18.74
2022-08-23T04:18:02.759Z,18.73
2022-08-23T04:20:29.990Z,18.71
2022-08-23T04:22:56.806Z,18.70
2022-08-23T04:25:32.880Z,18.69
2022-08-23T04:28:02.203Z,18.69
2022-08-23T04:30:29.164Z,18.69
2022-08-23T04:32:55.763Z,18.70
2022-08-23T04:35:22.483Z,18.68
2022-08-23T04:37:49.596Z,18.71
2022-08-23T04:40:35.019Z,18.70
2022-08-23T04:43:02.392Z,18.71
2022-08-23T04:45:29.867Z,18.74
2022-08-23T04:47:56.633Z,18.73
2022-08-23T04:50:23.425Z,18.74
2022-08-23T04:52:50.119Z,18.77
2022-08-23T04:55:16.785Z,18.81
2022-08-23T04:57:43.517Z,18.91
2022-08-23T05:00:13.513Z,19.45
2022-08-23T05:02:40.586Z,20.06
2022-08-23T05:05:08.335Z,20.55
2022-08-23T05:07:42.407Z,20.84
2022-08-23T05:10:13.116Z,21.13
2022-08-23T05:12:40.056Z,21.34
2022-08-23T05:15:09.499Z,21.55
2022-08-23T05:17:37.043Z,21.71
2022-08-23T05:20:05.515Z,21.81
2022-08-23T05:22:41.002Z,21.94
2022-08-23T05:25:08.342Z,22.12
2022-08-23T05:27:35.811Z,22.27
2022-08-23T05:30:02.926Z,22.41
2022-08-23T05:32:33.211Z,22.54
2022-08-23T05:35:00.320Z,22.68
2022-08-23T05:39:53.431Z,22.90
2022-08-23T05:42:20.051Z,22.92
2022-08-23T05:44:46.711Z,22.91
2022-08-23T05:47:16.244Z,22.84
2022-08-23T05:49:43.103Z,22.90
2022-08-23T05:52:12.151Z,23.04
2022-08-23T05:54:39.707Z,23.03
2022-08-23T05:57:06.416Z,22.92
2022-08-23T05:59:33.201Z,22.71
2022-08-23T06:01:59.788Z,22.58
2022-08-23T06:04:26.318Z,22.53
2022-08-23T06:06:56.456Z,22.58
2022-08-23T06:09:23.440Z,22.56
2022-08-23T06:11:50.447Z,22.43
2022-08-23T06:14:17.351Z,22.23
2022-08-23T06:16:46.736Z,22.21
2022-08-23T06:19:14.304Z,22.10
2022-08-23T06:21:41.943Z,21.96
2022-08-23T06:24:09.027Z,21.96
2022-08-23T06:26:39.479Z,21.97
2022-08-23T06:29:11.271Z,22.02
2022-08-23T06:31:47.752Z,22.20
2022-08-23T06:34:33.420Z,22.35
2022-08-23T06:37:04.851Z,22.55
2022-08-23T06:39:35.554Z,22.66
2022-08-23T06:42:36.468Z,22.84
2022-08-23T06:44:56.868Z,23.22
2022-08-23T06:47:23.753Z,23.53
2022-08-23T06:49:55.365Z,23.70
2022-08-23T06:52:27.536Z,23.92
2022-08-23T06:54:54.523Z,24.02
2022-08-23T06:57:21.180Z,24.18
2022-08-23T06:59:50.017Z,24.37
2022-08-23T07:02:16.837Z,24.53
2022-08-23T07:04:43.524Z,24.68
2022-08-23T07:07:11.965Z,24.79
2022-08-23T07:09:39.722Z,24.92
2022-08-23T07:12:06.682Z,24.89
2022-08-23T07:14:34.000Z,24.93
2022-08-23T07:17:03.559Z,25.01
2022-08-23T07:19:32.884Z,24.91
2022-08-23T07:22:00.444Z,24.70
2022-08-23T07:24:33.037Z,24.63
2022-08-23T07:27:01.428Z,24.81
2022-08-23T07:29:28.714Z,24.90
2022-08-23T07:31:56.880Z,24.82
2022-08-23T07:34:24.896Z,24.89
2022-08-23T07:36:53.416Z,24.99
2022-08-23T07:39:22.341Z,25.05
2022-08-23T07:41:49.883Z,25.05
2022-08-23T07:44:18.232Z,25.12
2022-08-23T07:46:46.368Z,25.10
2022-08-23T07:49:13.511Z,25.12
2022-08-23T07:51:43.060Z,25.28
2022-08-23T07:54:10.733Z,25.33
2022-08-23T07:56:37.650Z,25.30
2022-08-23T07:59:08.255Z,25.40
2022-08-23T08:01:35.683Z,25.40
2022-08-23T08:04:03.977Z,25.38
2022-08-23T08:06:40.380Z,25.40
2022-08-23T08:09:08.647Z,25.48
2022-08-23T08:11:36.291Z,25.45
2022-08-23T08:14:07.841Z,25.47
2022-08-23T08:16:43.404Z,25.45
2022-08-23T08:19:12.718Z,25.53
2022-08-23T08:21:42.372Z,25.66
2022-08-23T08:24:12.778Z,25.81
2022-08-23T08:26:41.134Z,25.91
2022-08-23T08:29:11.966Z,25.98
2022-08-23T08:31:40.836Z,26.03
2022-08-23T08:34:08.442Z,26.05
2022-08-23T08:36:54.018Z,26.12
2022-08-23T08:39:24.415Z,26.19
2022-08-23T08:42:19.652Z,26.17
2022-08-23T08:44:59.048Z,26.15
2022-08-23T08:47:31.312Z,26.20
2022-08-23T08:50:06.617Z,26.30
2022-08-23T08:52:38.618Z,26.39
2022-08-23T08:55:08.763Z,26.43
2022-08-23T08:57:44.531Z,26.54
2022-08-23T09:00:19.521Z,26.76
2022-08-23T09:02:46.626Z,26.89
2022-08-23T09:05:20.974Z,26.86
2022-08-23T09:08:00.873Z,26.86
2022-08-23T09:10:58.742Z,26.96
2022-08-23T09:14:07.490Z,27.14
2022-08-23T09:16:49.152Z,27.21
2022-08-23T09:19:17.570Z,27.24
2022-08-23T09:21:46.362Z,27.29
2022-08-23T09:24:13.761Z,27.44
2022-08-23T09:26:41.092Z,27.48
2022-08-23T09:29:17.374Z,27.54
2022-08-23T09:31:52.666Z,27.62
2022-08-23T09:34:37.122Z,27.62
2022-08-23T09:37:16.195Z,27.55
2022-08-23T09:39:46.050Z,27.54
2022-08-23T09:42:36.026Z,27.57
2022-08-23T09:45:14.065Z,27.68
2022-08-23T09:47:44.834Z,27.82
2022-08-23T09:50:29.140Z,27.85
2022-08-23T09:53:08.775Z,27.79
2022-08-23T09:55:39.196Z,27.84
2022-08-23T09:58:37.293Z,28.03
2022-08-23T10:01:13.648Z,28.27
2022-08-23T10:03:42.792Z,28.41
2022-08-23T10:06:12.209Z,28.44
2022-08-23T10:08:53.342Z,28.45
2022-08-23T10:11:31.142Z,28.55
2022-08-23T10:13:57.877Z,28.71
2022-08-23T10:16:41.710Z,28.75
2022-08-23T10:19:34.373Z,28.86
2022-08-23T10:22:26.896Z,28.94
2022-08-23T10:25:22.853Z,29.07
2022-08-23T10:28:41.737Z,29.03
2022-08-23T10:31:27.238Z,29.03
2022-08-23T10:34:22.353Z,29.06
2022-08-23T10:37:12.140Z,29.05
2022-08-23T10:39:49.665Z,29.07
2022-08-23T10:42:21.855Z,29.17
2022-08-23T10:44:55.735Z,29.12
2022-08-23T10:47:44.630Z,29.06
2022-08-23T10:50:14.459Z,28.94
2022-08-23T10:52:51.487Z,28.85
2022-08-23T10:55:35.973Z,28.92
2022-08-23T10:58:05.999Z,28.84
2022-08-23T11:00:34.967Z,28.98
2022-08-23T11:03:31.997Z,29.33
2022-08-23T11:06:26.345Z,29.82
2022-08-23T11:09:17.434Z,30.10
2022-08-23T11:12:02.641Z,30.03
2022-08-23T11:14:32.111Z,29.85
2022-08-23T11:17:09.419Z,29.68
2022-08-23T11:20:08.447Z,29.80
2022-08-23T11:22:57.515Z,29.82
2022-08-23T11:25:30.170Z,29.90
2022-08-23T11:28:28.449Z,29.92
2022-08-23T11:30:57.546Z,29.95
2022-08-23T11:33:27.601Z,30.09
2022-08-23T11:36:16.610Z,30.18
2022-08-23T11:38:49.297Z,30.49
2022-08-23T11:41:30.482Z,30.77
2022-08-23T11:43:56.977Z,30.88
2022-08-23T11:46:24.200Z,31.04
2022-08-23T11:49:11.415Z,31.03
2022-08-23T11:51:56.024Z,31.18
2022-08-23T11:54:46.995Z,31.21
2022-08-23T11:57:55.089Z,31.27
2022-08-23T12:00:29.485Z,31.21
2022-08-23T12:03:02.450Z,31.08
2022-08-23T12:05:35.266Z,31.14
2022-08-23T12:08:02.514Z,31.35
2022-08-23T12:10:38.092Z,31.43
2022-08-23T12:13:30.271Z,31.38
2022-08-23T12:16:17.452Z,31.43
2022-08-23T12:18:47.954Z,31.28
2022-08-23T12:21:31.688Z,31.10
2022-08-23T12:24:03.291Z,31.04
2022-08-23T12:26:38.767Z,31.07
2022-08-23T12:29:50.081Z,31.25
2022-08-23T12:32:20.225Z,31.48
2022-08-23T12:35:05.082Z,31.50
2022-08-23T12:37:54.915Z,31.30
2022-08-23T12:40:44.213Z,31.06
2022-08-23T12:43:20.814Z,30.83
2022-08-23T12:45:55.218Z,30.68
2022-08-23T12:48:25.431Z,30.64
2022-08-23T12:51:01.298Z,30.79
2022-08-23T12:53:27.793Z,31.19
2022-08-23T12:56:01.858Z,31.62
2022-08-23T12:58:33.734Z,31.88
2022-08-23T13:01:05.177Z,32.02
2022-08-23T13:03:36.810Z,32.19
2022-08-23T13:06:10.716Z,32.09
2022-08-23T13:08:53.733Z,31.83
2022-08-23T13:11:26.900Z,31.61
2022-08-23T13:13:55.459Z,31.61
2022-08-23T13:16:34.033Z,31.84
2022-08-23T13:19:30.576Z,32.42
2022-08-23T13:22:19.311Z,32.74
2022-08-23T13:27:57.544Z,31.92
2022-08-23T13:30:31.071Z,31.63
2022-08-23T13:33:09.672Z,31.29
2022-08-23T13:35:47.224Z,31.08
2022-08-23T13:38:30.247Z,30.96
2022-08-23T13:41:27.620Z,30.93
2022-08-23T13:43:54.997Z,31.00
2022-08-23T13:46:31.987Z,31.01
2022-08-23T13:49:16.499Z,31.13
2022-08-23T13:52:41.705Z,31.68
2022-08-23T13:54:53.117Z,32.44
2022-08-23T13:57:21.669Z,32.85
2022-08-23T13:59:54.324Z,33.40
2022-08-23T14:02:23.137Z,33.59
2022-08-23T14:04:50.806Z,33.37
2022-08-23T14:07:17.696Z,33.15
2022-08-23T14:09:44.468Z,32.88
2022-08-23T14:12:24.320Z,32.72
2022-08-23T14:14:55.895Z,32.36
2022-08-23T14:17:22.605Z,32.16
2022-08-23T14:22:36.380Z,31.93
2022-08-23T14:25:03.690Z,31.74
2022-08-23T14:27:30.268Z,31.56
2022-08-23T14:29:56.868Z,31.50
2022-08-23T14:32:23.584Z,31.57
2022-08-23T14:34:52.396Z,31.64
2022-08-23T14:38:02.802Z,32.35
2022-08-23T14:40:06.218Z,33.49
2022-08-23T14:42:33.001Z,34.07
2022-08-23T14:45:00.030Z,34.29
2022-08-23T14:47:26.929Z,34.11
2022-08-23T14:49:54.183Z,33.92
2022-08-23T14:52:21.499Z,33.72
2022-08-23T14:54:49.504Z,33.45
2022-08-23T14:57:16.536Z,33.25
2022-08-23T14:59:43.104Z,33.07
2022-08-23T15:02:12.136Z,32.90
2022-08-23T15:04:39.661Z,32.74
2022-08-23T15:07:17.563Z,32.71
2022-08-23T15:09:47.352Z,32.61
2022-08-23T15:15:00.550Z,32.80
2022-08-23T15:17:31.209Z,33.27
2022-08-23T15:19:58.220Z,33.98
2022-08-23T15:22:26.216Z,33.84
2022-08-23T15:24:52.983Z,33.99
2022-08-23T15:27:20.973Z,33.99
2022-08-23T15:29:47.519Z,34.56
2022-08-23T15:32:14.114Z,35.13
2022-08-23T15:34:48.767Z,34.82
2022-08-23T15:37:15.480Z,34.43
2022-08-23T15:39:42.437Z,33.99
2022-08-23T15:42:09.275Z,34.48
2022-08-23T15:44:35.857Z,35.50
2022-08-23T15:47:05.071Z,36.22
2022-08-23T15:49:36.198Z,36.17
2022-08-23T15:52:04.542Z,35.77
2022-08-23T15:54:31.350Z,34.79
2022-08-23T15:56:58.081Z,34.04
2022-08-23T15:59:25.215Z,33.62
2022-08-23T16:01:51.785Z,33.31
2022-08-23T16:04:18.639Z,33.00
2022-08-23T16:06:45.265Z,32.79
2022-08-23T16:09:21.126Z,32.54
2022-08-23T16:11:48.108Z,32.37
2022-08-23T16:14:14.710Z,32.36
2022-08-23T16:16:42.253Z,33.22
2022-08-23T16:19:09.998Z,33.59
2022-08-23T16:21:36.830Z,33.33
2022-08-23T16:24:04.135Z,33.05
2022-08-23T16:26:34.862Z,33.06
2022-08-23T16:29:02.529Z,32.87
2022-08-23T16:31:38.262Z,32.72
2022-08-23T16:34:09.371Z,32.52
2022-08-23T16:36:36.119Z,32.32
2022-08-23T16:39:03.285Z,32.28
2022-08-23T16:41:29.863Z,32.22
2022-08-23T16:43:56.425Z,32.13
2022-08-23T16:46:24.417Z,32.24
2022-08-23T16:48:51.281Z,32.66
2022-08-23T16:51:18.348Z,33.11
2022-08-23T16:53:44.888Z,33.42
2022-08-23T16:56:29.513Z,33.41
2022-08-23T16:58:56.870Z,33.27
2022-08-23T17:01:23.843Z,33.07
2022-08-23T17:03:50.886Z,32.83
2022-08-23T17:06:18.191Z,32.62
2022-08-23T17:08:45.211Z,32.43
2022-08-23T17:11:15.101Z,32.20
2022-08-23T17:13:41.780Z,32.03
2022-08-23T17:16:10.721Z,31.92
2022-08-23T17:18:38.547Z,31.74
2022-08-23T17:21:05.592Z,31.53
2022-08-23T17:23:32.170Z,31.35
2022-08-23T17:25:59.632Z,31.21
2022-08-23T17:28:26.359Z,31.06
2022-08-23T17:30:54.182Z,30.88
2022-08-23T17:33:22.307Z,30.79
2022-08-23T17:35:48.864Z,30.64
2022-08-23T17:38:15.573Z,30.47
2022-08-23T17:40:42.251Z,30.38
2022-08-23T17:43:09.192Z,30.29
2022-08-23T17:45:45.537Z,30.17
2022-08-23T17:48:13.490Z,30.09
2022-08-23T17:50:43.634Z,30.00
2022-08-23T17:53:11.334Z,29.89
2022-08-23T17:55:39.284Z,29.78
2022-08-23T17:58:08.214Z,29.70
2022-08-23T18:00:38.893Z,29.60
2022-08-23T18:03:05.813Z,29.53
2022-08-23T18:05:34.036Z,29.42
2022-08-23T18:08:01.261Z,29.30
2022-08-23T18:10:29.864Z,29.14
2022-08-23T18:12:57.263Z,29.01
2022-08-23T18:15:24.463Z,28.90
2022-08-23T18:17:58.173Z,28.82
2022-08-23T18:20:26.671Z,28.77
2022-08-23T18:22:55.156Z,28.71
2022-08-23T18:25:22.168Z,28.57
2022-08-23T18:28:08.348Z,28.46
2022-08-23T18:30:40.261Z,28.31
2022-08-23T18:33:07.258Z,28.21
2022-08-23T18:35:34.562Z,28.09
2022-08-23T18:38:01.335Z,28.00
2022-08-23T18:40:29.523Z,27.89
2022-08-23T18:42:57.294Z,27.80
2022-08-23T18:45:24.663Z,27.73
2022-08-23T18:47:51.306Z,27.67
2022-08-23T18:50:18.918Z,27.63
2022-08-23T18:52:45.661Z,27.57
2022-08-23T18:55:12.273Z,27.48
2022-08-23T18:57:39.103Z,27.39
2022-08-23T19:00:09.626Z,27.35
2022-08-23T19:02:36.355Z,27.32
2022-08-23T19:05:03.735Z,27.28
2022-08-23T19:07:30.376Z,27.22
2022-08-23T19:09:56.960Z,27.18
2022-08-23T19:12:23.715Z,27.14
2022-08-23T19:14:50.384Z,27.08
2022-08-23T19:17:17.019Z,27.04
2022-08-23T19:19:43.555Z,27.00
2022-08-23T19:22:10.272Z,26.94
2022-08-23T19:24:36.890Z,26.88
2022-08-23T19:27:03.564Z,26.83
2022-08-23T19:29:31.782Z,26.76
2022-08-23T19:31:58.708Z,26.69
2022-08-23T19:34:25.358Z,26.61
2022-08-23T19:37:00.638Z,26.56
2022-08-23T19:39:29.404Z,26.51
2022-08-23T19:41:56.037Z,26.47
2022-08-23T19:44:22.744Z,26.45
2022-08-23T19:46:49.734Z,26.43
2022-08-23T19:49:17.096Z,26.41
2022-08-23T19:51:44.660Z,26.38
2022-08-23T19:54:12.819Z,26.36
2022-08-23T19:56:39.524Z,26.31
2022-08-23T19:59:08.897Z,26.28
2022-08-23T20:01:36.364Z,26.25
2022-08-23T20:04:05.033Z,26.21
2022-08-23T20:06:32.569Z,26.16
2022-08-23T20:08:59.276Z,26.10
2022-08-23T20:11:27.881Z,26.07
2022-08-23T20:13:56.597Z,26.04
2022-08-23T20:16:23.954Z,25.96
2022-08-23T20:18:51.526Z,25.91
2022-08-23T20:21:18.235Z,25.87
2022-08-23T20:24:05.951Z,25.80
2022-08-23T20:26:42.547Z,25.71
2022-08-23T20:29:12.655Z,25.67
2022-08-23T20:31:54.924Z,25.60
2022-08-23T20:34:22.278Z,25.55
2022-08-23T20:36:55.803Z,25.50
2022-08-23T20:39:24.184Z,25.44
2022-08-23T20:41:52.194Z,25.38
2022-08-23T20:44:19.721Z,25.29
2022-08-23T20:46:50.695Z,25.23
2022-08-23T20:49:20.011Z,25.14
2022-08-23T20:51:46.634Z,25.08
2022-08-23T20:54:14.457Z,25.03
2022-08-23T20:56:41.367Z,24.96
2022-08-23T20:59:08.765Z,24.87
2022-08-23T21:01:35.577Z,24.81
2022-08-23T21:04:02.413Z,24.76
2022-08-23T21:06:36.209Z,24.69
2022-08-23T21:09:04.003Z,24.64
2022-08-23T21:11:30.735Z,24.61
2022-08-23T21:13:58.638Z,24.59
2022-08-23T21:16:26.424Z,24.51
2022-08-23T21:18:55.383Z,24.46
2022-08-23T21:21:25.614Z,24.38
2022-08-23T21:23:53.063Z,24.32
2022-08-23T21:26:21.102Z,24.28
2022-08-23T21:28:48.289Z,24.22
2022-08-23T21:31:17.923Z,24.18
2022-08-23T21:33:45.161Z,24.16
2022-08-23T21:36:14.170Z,24.13
2022-08-23T21:38:41.332Z,24.14
2022-08-23T21:41:11.350Z,24.12
2022-08-23T21:43:38.789Z,24.15
2022-08-23T21:46:07.394Z,24.13
2022-08-23T21:48:34.398Z,24.14
2022-08-23T21:51:01.600Z,24.18
2022-08-23T21:53:28.233Z,24.20
2022-08-23T21:55:54.788Z,24.23
2022-08-23T21:58:21.410Z,24.26
2022-08-23T22:00:48.164Z,24.27
2022-08-23T22:03:14.904Z,24.23
2022-08-23T22:05:43.539Z,24.21
2022-08-23T22:08:14.458Z,24.18
2022-08-23T22:10:48.192Z,24.13
2022-08-23T22:13:24.850Z,24.07
2022-08-23T22:15:51.528Z,24.06
2022-08-23T22:18:18.157Z,24.02
2022-08-23T22:20:44.720Z,24.03
2022-08-23T22:23:11.729Z,24.04
2022-08-23T22:25:38.636Z,24.06
2022-08-23T22:28:05.174Z,24.07
2022-08-23T22:30:32.137Z,24.05
2022-08-23T22:32:58.724Z,24.04
2022-08-23T22:35:25.425Z,24.03
2022-08-23T22:38:12.356Z,23.98
2022-08-23T22:40:39.474Z,23.94
2022-08-23T22:43:06.096Z,23.91
2022-08-23T22:45:32.675Z,23.89
2022-08-23T22:47:59.398Z,23.85
2022-08-23T22:50:25.990Z,23.81
2022-08-23T22:52:52.541Z,23.77
2022-08-23T22:55:19.181Z,23.74
2022-08-23T22:57:45.939Z,23.72
2022-08-23T23:00:12.737Z,23.69
2022-08-23T23:02:39.518Z,23.66
2022-08-23T23:05:07.970Z,23.62
2022-08-23T23:07:53.237Z,23.56
2022-08-23T23:10:20.216Z,23.49
2022-08-23T23:12:46.887Z,23.42
2022-08-23T23:15:13.940Z,23.39
2022-08-23T23:17:40.487Z,23.35
2022-08-23T23:20:26.177Z,23.32
2022-08-23T23:22:52.764Z,23.23
2022-08-23T23:25:20.010Z,23.19
2022-08-23T23:27:46.579Z,23.14
2022-08-23T23:30:13.529Z,23.10
2022-08-23T23:32:40.117Z,23.05
2022-08-23T23:35:10.109Z,23.00
2022-08-23T23:37:37.190Z,22.95
2022-08-23T23:40:05.418Z,22.90
2022-08-23T23:42:32.096Z,22.88
2022-08-23T23:44:58.769Z,22.84
2022-08-23T23:47:25.303Z,22.79
2022-08-23T23:49:52.093Z,22.75
2022-08-23T23:52:18.793Z,22.69
2022-08-23T23:54:46.289Z,22.64
2022-08-23T23:57:13.008Z,22.55
2022-08-23T23:59:41.029Z,22.50
